• Join FlightAware (Why Join?)
  • Login
  • US Flag 
09:33AM EDT


 

Airport Tracker/Info


-or-


 

Live Flight TrackerFlight Track Log ✈ EJA820 ✈ 30-Apr-2013 ✈ KHPN - KBOS

Flight Track Log - Related Links

Times and Time Zones

All times are in EDT time to prevent confusion due to time zone crossing. See the EJA820 flight status page for this flight to view local times or setup timezone preferences in your user account.

Time Position Orientation Groundspeed Altitude Reporting Facility
EDT Latitude Longitude Course Direction KTS MPH feet Rate Location/Type
05:32PM 41.0500 -73.7333 66° East 211 243 3,100  Level New York TRACON
05:34PM 41.1000 -73.8000 315° West 235 270 7,500 4,020 Climbing New York TRACON
05:35PM 41.1500 -73.7833 14° North 254 292 11,600 2,820 Climbing New York TRACON
05:36PM 41.2039 -73.6567 60° Northeast 276 318 15,000 1,320 Climbing Boston Center
05:37PM 41.2297 -73.5800 66° East 295 339 15,100  Climbing Boston Center
05:38PM 41.3831 -73.0841 66° East  Level FlightAware Approximate
05:38PM 41.2811 -73.4317 65° Northeast 327 376 15,000  Level Boston Center
05:39PM 41.3153 -73.3244 67° East 341 392 15,000 -60 Level Boston Center
05:40PM 41.3475 -73.1867 73° East 346 398 14,900  Descending Boston Center
05:41PM 41.3711 -73.0736 74° East 346 398 15,000  Climbing Boston Center
05:42PM 41.4031 -72.9383 72° East 338 389 15,000  Level Boston Center
05:43PM 41.4264 -72.8306 74° East 338 389 15,000  Level Boston Center
05:44PM 41.4539 -72.6978 75° East 338 389 15,000  Level Boston Center
05:45PM 41.4792 -72.5842 73° East 338 389 15,000 -60 Level Boston Center
05:46PM 41.5064 -72.4511 75° East 338 389 14,900  Descending Boston Center
05:47PM 41.5333 -72.3375 72° East 338 389 15,000 60 Climbing Boston Center
05:48PM 41.5644 -72.1986 73° East 345 397 15,100 -480 Climbing Boston Center
05:49PM 41.5892 -72.0764 75° East 345 397 14,100 -1,020 Descending Boston Center
05:50PM 41.6158 -71.9569 73° East 340 391 13,100 -1,080 Descending Boston Center
05:51PM 41.6403 -71.8372 75° East 340 391 12,000 -1,020 Descending Boston Center
05:52PM 41.6644 -71.7175 75° East 335 386 11,100 -540 Descending Boston Center
05:53PM 41.6867 -71.6061 75° East 320 368 11,000  Descending Boston Center
05:54PM 41.7089 -71.5058 73° East 315 362 11,100  Climbing Boston Center
05:55PM 41.7392 -71.3994 69° East 290 334 11,000 -60 Descending Boston Center
05:56PM 41.7928 -71.3431 38° Northeast 262 302 11,000  Level Boston Center
05:57PM 41.8611 -71.3056 22° Northeast 240 276 11,000 -600 Level Boston Center
05:58PM 41.9214 -71.2933 North 240 276 9,800 -1,680 Descending Boston Center
05:59PM 41.9922 -71.2892 North 234 269 7,700 -2,040 Descending Boston Center
06:00PM 42.0486 -71.2828 North 229 264 5,800 -1,860 Descending Boston Center
06:01PM 42.1086 -71.2508 22° Northeast 215 247 4,000 -900 Descending Boston Center
06:02PM 42.1522 -71.2247 24° Northeast 208 239 4,000 -360 Level Boston Center
06:03PM 42.1994 -71.1594 46° Northeast 203 234 3,300 -600 Descending Boston Center
06:04PM 42.2278 -71.1056 55° Northeast 198 228 2,900 -720 Descending Boston Center
06:05PM 42.2667 -71.0500 47° Northeast 166 191 1,900 -780 Descending KA90
06:06PM 42.3000 -71.0333 20° North 137 158 1,400 -720 Descending KA90
06:07PM 42.3500 -71.0167 14° North 124 143 300 -900 Descending KA90
06:10PM 42.3500 -71.0000 216° Southwest  Level FlightAware Approximate